sensor_id;sensor_type;location;lat;lon;timestamp;P1;durP1;ratioP1;P2;durP2;ratioP2
705;SDS011;21234;48.690;9.016;2024-02-21T00:01:14;6.43;;;3.43;;
705;SDS011;21234;48.690;9.016;2024-02-21T00:03:41;7.17;;;3.00;;
705;SDS011;21234;48.690;9.016;2024-02-21T00:06:08;6.30;;;2.93;;
705;SDS011;21234;48.690;9.016;2024-02-21T00:08:35;7.77;;;3.47;;
705;SDS011;21234;48.690;9.016;2024-02-21T00:11:02;9.50;;;3.80;;
705;SDS011;21234;48.690;9.016;2024-02-21T00:13:28;6.93;;;3.27;;
705;SDS011;21234;48.690;9.016;2024-02-21T00:15:57;10.97;;;3.47;;
705;SDS011;21234;48.690;9.016;2024-02-21T00:18:23;7.13;;;3.93;;
705;SDS011;21234;48.690;9.016;2024-02-21T00:20:50;3.57;;;2.60;;
705;SDS011;21234;48.690;9.016;2024-02-21T00:23:17;5.57;;;3.23;;
705;SDS011;21234;48.690;9.016;2024-02-21T00:25:44;4.33;;;3.20;;
705;SDS011;21234;48.690;9.016;2024-02-21T00:28:10;6.33;;;3.50;;
705;SDS011;21234;48.690;9.016;2024-02-21T00:30:38;5.93;;;3.67;;
705;SDS011;21234;48.690;9.016;2024-02-21T00:33:06;3.33;;;2.30;;
705;SDS011;21234;48.690;9.016;2024-02-21T00:35:33;7.83;;;3.93;;
705;SDS011;21234;48.690;9.016;2024-02-21T00:37:59;5.07;;;2.40;;
705;SDS011;21234;48.690;9.016;2024-02-21T00:40:26;2.40;;;2.20;;
705;SDS011;21234;48.690;9.016;2024-02-21T00:42:52;7.00;;;2.80;;
705;SDS011;21234;48.690;9.016;2024-02-21T00:45:19;6.87;;;3.07;;
705;SDS011;21234;48.690;9.016;2024-02-21T00:47:46;4.20;;;2.77;;
705;SDS011;21234;48.690;9.016;2024-02-21T00:50:14;5.27;;;2.60;;
705;SDS011;21234;48.690;9.016;2024-02-21T00:52:41;3.33;;;2.57;;
705;SDS011;21234;48.690;9.016;2024-02-21T00:55:07;10.50;;;3.33;;
705;SDS011;21234;48.690;9.016;2024-02-21T00:57:34;8.67;;;3.10;;
705;SDS011;21234;48.690;9.016;2024-02-21T01:00:01;7.13;;;2.33;;
705;SDS011;21234;48.690;9.016;2024-02-21T01:02:28;6.03;;;2.73;;
705;SDS011;21234;48.690;9.016;2024-02-21T01:04:56;3.83;;;2.50;;
705;SDS011;21234;48.690;9.016;2024-02-21T01:07:24;5.13;;;2.53;;
705;SDS011;21234;48.690;9.016;2024-02-21T01:09:51;8.40;;;2.60;;
705;SDS011;21234;48.690;9.016;2024-02-21T01:12:18;4.10;;;2.77;;
705;SDS011;21234;48.690;9.016;2024-02-21T01:14:44;3.97;;;2.50;;
705;SDS011;21234;48.690;9.016;2024-02-21T01:17:12;10.20;;;3.17;;
705;SDS011;21234;48.690;9.016;2024-02-21T01:19:39;6.40;;;1.90;;
705;SDS011;21234;48.690;9.016;2024-02-21T01:22:06;3.87;;;2.37;;
705;SDS011;21234;48.690;9.016;2024-02-21T01:24:34;3.60;;;2.47;;
705;SDS011;21234;48.690;9.016;2024-02-21T01:27:01;2.37;;;1.80;;
705;SDS011;21234;48.690;9.016;2024-02-21T01:29:28;4.37;;;3.00;;
705;SDS011;21234;48.690;9.016;2024-02-21T01:31:54;6.53;;;2.93;;
705;SDS011;21234;48.690;9.016;2024-02-21T01:34:21;6.97;;;2.70;;
705;SDS011;21234;48.690;9.016;2024-02-21T01:36:48;6.53;;;2.63;;
705;SDS011;21234;48.690;9.016;2024-02-21T01:39:14;4.80;;;2.00;;
705;SDS011;21234;48.690;9.016;2024-02-21T01:41:42;4.20;;;2.50;;
705;SDS011;21234;48.690;9.016;2024-02-21T01:44:09;2.97;;;2.20;;
705;SDS011;21234;48.690;9.016;2024-02-21T01:46:36;4.50;;;2.17;;
705;SDS011;21234;48.690;9.016;2024-02-21T01:49:03;2.97;;;1.97;;
705;SDS011;21234;48.690;9.016;2024-02-21T01:51:30;7.20;;;3.73;;
705;SDS011;21234;48.690;9.016;2024-02-21T01:53:57;5.37;;;2.87;;
705;SDS011;21234;48.690;9.016;2024-02-21T01:56:24;4.67;;;3.40;;
705;SDS011;21234;48.690;9.016;2024-02-21T01:58:52;6.73;;;3.20;;
705;SDS011;21234;48.690;9.016;2024-02-21T02:01:20;3.93;;;3.00;;
705;SDS011;21234;48.690;9.016;2024-02-21T02:03:48;4.10;;;2.90;;
705;SDS011;21234;48.690;9.016;2024-02-21T02:06:15;3.83;;;2.47;;
705;SDS011;21234;48.690;9.016;2024-02-21T02:08:42;6.13;;;2.63;;
705;SDS011;21234;48.690;9.016;2024-02-21T02:11:09;6.97;;;3.30;;
705;SDS011;21234;48.690;9.016;2024-02-21T02:13:36;2.90;;;2.20;;
705;SDS011;21234;48.690;9.016;2024-02-21T02:16:05;5.17;;;2.67;;
705;SDS011;21234;48.690;9.016;2024-02-21T02:18:32;5.23;;;3.13;;
705;SDS011;21234;48.690;9.016;2024-02-21T02:20:58;12.00;;;3.47;;
705;SDS011;21234;48.690;9.016;2024-02-21T02:23:26;3.63;;;3.10;;
705;SDS011;21234;48.690;9.016;2024-02-21T02:25:54;5.30;;;2.40;;
705;SDS011;21234;48.690;9.016;2024-02-21T02:28:21;3.03;;;1.97;;
705;SDS011;21234;48.690;9.016;2024-02-21T02:30:48;5.90;;;3.67;;
705;SDS011;21234;48.690;9.016;2024-02-21T02:33:15;4.70;;;3.30;;
705;SDS011;21234;48.690;9.016;2024-02-21T02:35:42;4.80;;;3.10;;
705;SDS011;21234;48.690;9.016;2024-02-21T02:38:09;5.70;;;2.37;;
705;SDS011;21234;48.690;9.016;2024-02-21T02:40:38;9.37;;;3.87;;
705;SDS011;21234;48.690;9.016;2024-02-21T02:43:05;5.90;;;2.43;;
705;SDS011;21234;48.690;9.016;2024-02-21T02:45:32;7.10;;;3.03;;
705;SDS011;21234;48.690;9.016;2024-02-21T02:47:59;5.27;;;3.10;;
705;SDS011;21234;48.690;9.016;2024-02-21T02:50:26;7.10;;;2.83;;
705;SDS011;21234;48.690;9.016;2024-02-21T02:52:53;2.90;;;2.60;;
705;SDS011;21234;48.690;9.016;2024-02-21T02:55:20;6.20;;;3.03;;
705;SDS011;21234;48.690;9.016;2024-02-21T02:57:49;8.80;;;2.77;;
705;SDS011;21234;48.690;9.016;2024-02-21T03:00:15;4.03;;;2.90;;
705;SDS011;21234;48.690;9.016;2024-02-21T03:02:43;3.80;;;2.47;;
705;SDS011;21234;48.690;9.016;2024-02-21T03:05:12;4.20;;;2.83;;
705;SDS011;21234;48.690;9.016;2024-02-21T03:07:40;3.07;;;2.57;;
705;SDS011;21234;48.690;9.016;2024-02-21T03:10:08;7.00;;;2.43;;
705;SDS011;21234;48.690;9.016;2024-02-21T03:12:35;8.50;;;2.90;;
705;SDS011;21234;48.690;9.016;2024-02-21T03:15:04;8.70;;;3.67;;
705;SDS011;21234;48.690;9.016;2024-02-21T03:17:31;9.07;;;3.00;;
705;SDS011;21234;48.690;9.016;2024-02-21T03:19:59;3.30;;;3.00;;
705;SDS011;21234;48.690;9.016;2024-02-21T03:22:26;7.37;;;2.50;;
705;SDS011;21234;48.690;9.016;2024-02-21T03:24:53;5.13;;;2.97;;
705;SDS011;21234;48.690;9.016;2024-02-21T03:27:19;5.00;;;3.53;;
705;SDS011;21234;48.690;9.016;2024-02-21T03:29:46;3.80;;;2.47;;
705;SDS011;21234;48.690;9.016;2024-02-21T03:32:14;5.13;;;2.77;;
705;SDS011;21234;48.690;9.016;2024-02-21T03:34:41;3.17;;;2.50;;
705;SDS011;21234;48.690;9.016;2024-02-21T03:37:08;8.50;;;3.23;;
705;SDS011;21234;48.690;9.016;2024-02-21T03:39:34;6.67;;;2.90;;
705;SDS011;21234;48.690;9.016;2024-02-21T03:42:02;6.63;;;3.07;;
705;SDS011;21234;48.690;9.016;2024-02-21T03:44:29;4.53;;;3.13;;
705;SDS011;21234;48.690;9.016;2024-02-21T03:46:57;4.30;;;2.30;;
705;SDS011;21234;48.690;9.016;2024-02-21T03:49:25;3.80;;;2.80;;
705;SDS011;21234;48.690;9.016;2024-02-21T03:51:51;6.00;;;2.53;;
705;SDS011;21234;48.690;9.016;2024-02-21T03:54:18;5.20;;;2.33;;
705;SDS011;21234;48.690;9.016;2024-02-21T03:56:45;4.77;;;2.40;;
705;SDS011;21234;48.690;9.016;2024-02-21T03:59:12;7.20;;;2.50;;
705;SDS011;21234;48.690;9.016;2024-02-21T04:01:39;3.73;;;2.50;;
705;SDS011;21234;48.690;9.016;2024-02-21T04:04:06;8.87;;;3.63;;
705;SDS011;21234;48.690;9.016;2024-02-21T04:06:34;3.60;;;1.80;;
705;SDS011;21234;48.690;9.016;2024-02-21T04:09:01;3.87;;;2.53;;
705;SDS011;21234;48.690;9.016;2024-02-21T04:11:28;6.33;;;2.50;;
705;SDS011;21234;48.690;9.016;2024-02-21T04:13:55;2.20;;;2.00;;
705;SDS011;21234;48.690;9.016;2024-02-21T04:16:21;4.17;;;2.60;;
705;SDS011;21234;48.690;9.016;2024-02-21T04:18:48;5.50;;;1.90;;
705;SDS011;21234;48.690;9.016;2024-02-21T04:21:15;9.73;;;2.23;;
705;SDS011;21234;48.690;9.016;2024-02-21T04:23:45;6.30;;;2.40;;
705;SDS011;21234;48.690;9.016;2024-02-21T04:26:11;5.60;;;2.70;;
705;SDS011;21234;48.690;9.016;2024-02-21T04:28:38;4.40;;;1.93;;
705;SDS011;21234;48.690;9.016;2024-02-21T04:31:05;6.33;;;3.20;;
705;SDS011;21234;48.690;9.016;2024-02-21T04:33:31;8.60;;;3.03;;
705;SDS011;21234;48.690;9.016;2024-02-21T04:35:58;4.87;;;2.33;;
705;SDS011;21234;48.690;9.016;2024-02-21T04:38:26;2.97;;;2.40;;
705;SDS011;21234;48.690;9.016;2024-02-21T04:40:55;4.77;;;2.30;;
705;SDS011;21234;48.690;9.016;2024-02-21T04:43:23;8.40;;;2.07;;
705;SDS011;21234;48.690;9.016;2024-02-21T04:45:50;5.60;;;3.03;;
705;SDS011;21234;48.690;9.016;2024-02-21T04:48:18;4.80;;;2.70;;
705;SDS011;21234;48.690;9.016;2024-02-21T04:50:45;4.17;;;2.80;;
705;SDS011;21234;48.690;9.016;2024-02-21T04:53:12;2.43;;;2.23;;
705;SDS011;21234;48.690;9.016;2024-02-21T04:55:39;4.33;;;2.07;;
705;SDS011;21234;48.690;9.016;2024-02-21T04:58:07;7.00;;;2.57;;
705;SDS011;21234;48.690;9.016;2024-02-21T05:00:34;10.90;;;2.87;;
705;SDS011;21234;48.690;9.016;2024-02-21T05:03:01;5.77;;;2.37;;
705;SDS011;21234;48.690;9.016;2024-02-21T05:05:27;3.60;;;2.20;;
705;SDS011;21234;48.690;9.016;2024-02-21T05:07:54;3.93;;;2.00;;
705;SDS011;21234;48.690;9.016;2024-02-21T05:10:21;3.97;;;2.23;;
705;SDS011;21234;48.690;9.016;2024-02-21T05:12:48;5.80;;;2.57;;
705;SDS011;21234;48.690;9.016;2024-02-21T05:15:16;4.17;;;2.43;;
705;SDS011;21234;48.690;9.016;2024-02-21T05:17:42;8.33;;;2.57;;
705;SDS011;21234;48.690;9.016;2024-02-21T05:20:10;3.50;;;2.30;;
705;SDS011;21234;48.690;9.016;2024-02-21T05:22:37;4.67;;;2.47;;
705;SDS011;21234;48.690;9.016;2024-02-21T05:25:04;4.20;;;2.10;;
705;SDS011;21234;48.690;9.016;2024-02-21T05:27:31;7.13;;;2.57;;
705;SDS011;21234;48.690;9.016;2024-02-21T05:29:58;3.00;;;2.30;;
705;SDS011;21234;48.690;9.016;2024-02-21T05:32:26;2.80;;;1.83;;
705;SDS011;21234;48.690;9.016;2024-02-21T05:34:53;9.90;;;2.73;;
705;SDS011;21234;48.690;9.016;2024-02-21T05:37:20;6.33;;;2.70;;
705;SDS011;21234;48.690;9.016;2024-02-21T05:39:47;2.83;;;2.40;;
705;SDS011;21234;48.690;9.016;2024-02-21T05:42:14;5.37;;;2.90;;
705;SDS011;21234;48.690;9.016;2024-02-21T05:44:41;6.07;;;3.30;;
705;SDS011;21234;48.690;9.016;2024-02-21T05:47:07;4.67;;;2.90;;
705;SDS011;21234;48.690;9.016;2024-02-21T05:49:37;13.90;;;4.70;;
705;SDS011;21234;48.690;9.016;2024-02-21T05:52:04;8.37;;;3.37;;
705;SDS011;21234;48.690;9.016;2024-02-21T05:54:31;8.17;;;3.53;;
705;SDS011;21234;48.690;9.016;2024-02-21T05:56:58;7.00;;;3.90;;
705;SDS011;21234;48.690;9.016;2024-02-21T05:59:25;3.67;;;3.00;;
705;SDS011;21234;48.690;9.016;2024-02-21T06:01:55;4.47;;;2.30;;
705;SDS011;21234;48.690;9.016;2024-02-21T06:04:22;3.90;;;2.20;;
705;SDS011;21234;48.690;9.016;2024-02-21T06:06:50;3.90;;;2.57;;
705;SDS011;21234;48.690;9.016;2024-02-21T06:09:17;4.53;;;2.37;;
705;SDS011;21234;48.690;9.016;2024-02-21T06:11:44;3.23;;;2.20;;
705;SDS011;21234;48.690;9.016;2024-02-21T06:14:11;2.57;;;1.87;;
705;SDS011;21234;48.690;9.016;2024-02-21T06:16:38;3.07;;;1.70;;
705;SDS011;21234;48.690;9.016;2024-02-21T06:19:04;6.00;;;2.40;;
705;SDS011;21234;48.690;9.016;2024-02-21T06:21:31;7.27;;;2.57;;
705;SDS011;21234;48.690;9.016;2024-02-21T06:23:59;6.37;;;3.13;;
705;SDS011;21234;48.690;9.016;2024-02-21T06:26:26;10.53;;;5.07;;
705;SDS011;21234;48.690;9.016;2024-02-21T06:28:52;5.83;;;4.80;;
705;SDS011;21234;48.690;9.016;2024-02-21T06:31:19;8.50;;;4.00;;
705;SDS011;21234;48.690;9.016;2024-02-21T06:33:46;5.83;;;3.20;;
705;SDS011;21234;48.690;9.016;2024-02-21T06:36:12;7.10;;;2.97;;
705;SDS011;21234;48.690;9.016;2024-02-21T06:38:39;7.73;;;2.83;;
705;SDS011;21234;48.690;9.016;2024-02-21T06:41:07;5.03;;;3.00;;
705;SDS011;21234;48.690;9.016;2024-02-21T06:43:41;9.37;;;3.20;;
705;SDS011;21234;48.690;9.016;2024-02-21T06:46:07;6.40;;;3.40;;
705;SDS011;21234;48.690;9.016;2024-02-21T06:48:34;10.53;;;3.87;;
705;SDS011;21234;48.690;9.016;2024-02-21T06:51:01;7.53;;;3.47;;
705;SDS011;21234;48.690;9.016;2024-02-21T06:53:28;7.27;;;2.50;;
705;SDS011;21234;48.690;9.016;2024-02-21T06:55:55;2.90;;;2.60;;
705;SDS011;21234;48.690;9.016;2024-02-21T06:58:23;5.60;;;3.93;;
705;SDS011;21234;48.690;9.016;2024-02-21T07:00:49;16.27;;;10.07;;
705;SDS011;21234;48.690;9.016;2024-02-21T07:03:16;7.13;;;4.17;;
705;SDS011;21234;48.690;9.016;2024-02-21T07:05:43;10.10;;;4.77;;
705;SDS011;21234;48.690;9.016;2024-02-21T07:08:09;9.83;;;3.80;;
705;SDS011;21234;48.690;9.016;2024-02-21T07:10:36;11.43;;;6.20;;
705;SDS011;21234;48.690;9.016;2024-02-21T07:13:03;9.37;;;3.53;;
705;SDS011;21234;48.690;9.016;2024-02-21T07:15:31;5.33;;;2.30;;
705;SDS011;21234;48.690;9.016;2024-02-21T07:17:58;6.47;;;2.73;;
705;SDS011;21234;48.690;9.016;2024-02-21T07:20:25;9.33;;;3.37;;
705;SDS011;21234;48.690;9.016;2024-02-21T07:22:51;4.30;;;2.57;;
705;SDS011;21234;48.690;9.016;2024-02-21T07:25:18;5.43;;;3.67;;
705;SDS011;21234;48.690;9.016;2024-02-21T07:27:44;7.00;;;3.60;;
705;SDS011;21234;48.690;9.016;2024-02-21T07:30:12;8.30;;;2.90;;
705;SDS011;21234;48.690;9.016;2024-02-21T07:32:40;8.20;;;4.27;;
705;SDS011;21234;48.690;9.016;2024-02-21T07:35:07;4.87;;;3.10;;
705;SDS011;21234;48.690;9.016;2024-02-21T07:37:35;5.17;;;4.60;;
705;SDS011;21234;48.690;9.016;2024-02-21T07:40:02;5.93;;;2.93;;
705;SDS011;21234;48.690;9.016;2024-02-21T07:42:30;5.37;;;2.80;;
705;SDS011;21234;48.690;9.016;2024-02-21T07:44:57;5.20;;;2.97;;
705;SDS011;21234;48.690;9.016;2024-02-21T07:47:23;4.97;;;2.43;;
705;SDS011;21234;48.690;9.016;2024-02-21T07:49:51;6.73;;;3.90;;
705;SDS011;21234;48.690;9.016;2024-02-21T07:52:18;5.77;;;3.30;;
705;SDS011;21234;48.690;9.016;2024-02-21T07:54:44;6.50;;;3.10;;
705;SDS011;21234;48.690;9.016;2024-02-21T07:57:11;4.33;;;2.80;;
705;SDS011;21234;48.690;9.016;2024-02-21T07:59:38;8.13;;;3.80;;
705;SDS011;21234;48.690;9.016;2024-02-21T08:02:04;5.43;;;3.77;;
705;SDS011;21234;48.690;9.016;2024-02-21T08:04:31;5.17;;;2.47;;
705;SDS011;21234;48.690;9.016;2024-02-21T08:06:59;3.77;;;2.70;;
705;SDS011;21234;48.690;9.016;2024-02-21T08:09:29;6.00;;;3.13;;
705;SDS011;21234;48.690;9.016;2024-02-21T08:11:55;4.30;;;2.40;;
705;SDS011;21234;48.690;9.016;2024-02-21T08:14:22;5.90;;;2.80;;
705;SDS011;21234;48.690;9.016;2024-02-21T08:16:49;7.60;;;3.07;;
705;SDS011;21234;48.690;9.016;2024-02-21T08:19:18;9.37;;;2.90;;
705;SDS011;21234;48.690;9.016;2024-02-21T08:21:44;5.53;;;4.00;;
705;SDS011;21234;48.690;9.016;2024-02-21T08:24:13;7.47;;;3.10;;
705;SDS011;21234;48.690;9.016;2024-02-21T08:26:40;5.53;;;4.47;;
705;SDS011;21234;48.690;9.016;2024-02-21T08:29:07;5.57;;;2.50;;
705;SDS011;21234;48.690;9.016;2024-02-21T08:31:34;7.07;;;2.53;;
705;SDS011;21234;48.690;9.016;2024-02-21T08:34:00;5.97;;;2.03;;
705;SDS011;21234;48.690;9.016;2024-02-21T08:36:28;2.23;;;2.03;;
705;SDS011;21234;48.690;9.016;2024-02-21T08:38:55;3.57;;;2.53;;
705;SDS011;21234;48.690;9.016;2024-02-21T08:41:24;6.27;;;2.70;;
705;SDS011;21234;48.690;9.016;2024-02-21T08:43:50;6.23;;;2.87;;
705;SDS011;21234;48.690;9.016;2024-02-21T08:46:18;3.93;;;2.70;;
705;SDS011;21234;48.690;9.016;2024-02-21T08:48:45;3.70;;;2.40;;
705;SDS011;21234;48.690;9.016;2024-02-21T08:51:12;5.30;;;2.80;;
705;SDS011;21234;48.690;9.016;2024-02-21T08:53:39;7.13;;;2.67;;
705;SDS011;21234;48.690;9.016;2024-02-21T08:56:06;9.30;;;2.87;;
705;SDS011;21234;48.690;9.016;2024-02-21T08:58:35;4.47;;;3.37;;
705;SDS011;21234;48.690;9.016;2024-02-21T09:01:03;2.20;;;1.83;;
705;SDS011;21234;48.690;9.016;2024-02-21T09:03:30;4.00;;;2.50;;
705;SDS011;21234;48.690;9.016;2024-02-21T09:05:58;10.63;;;4.03;;
705;SDS011;21234;48.690;9.016;2024-02-21T09:08:24;7.03;;;2.63;;
705;SDS011;21234;48.690;9.016;2024-02-21T09:10:51;8.73;;;3.93;;
705;SDS011;21234;48.690;9.016;2024-02-21T09:13:18;4.83;;;2.77;;
705;SDS011;21234;48.690;9.016;2024-02-21T09:15:46;6.73;;;2.10;;
705;SDS011;21234;48.690;9.016;2024-02-21T09:18:13;5.43;;;2.43;;
705;SDS011;21234;48.690;9.016;2024-02-21T09:20:40;3.70;;;1.87;;
705;SDS011;21234;48.690;9.016;2024-02-21T09:23:07;3.33;;;2.40;;
705;SDS011;21234;48.690;9.016;2024-02-21T09:25:33;3.70;;;1.80;;
705;SDS011;21234;48.690;9.016;2024-02-21T09:28:01;3.20;;;2.17;;
705;SDS011;21234;48.690;9.016;2024-02-21T09:30:28;3.03;;;2.20;;
705;SDS011;21234;48.690;9.016;2024-02-21T09:32:56;6.70;;;1.93;;
705;SDS011;21234;48.690;9.016;2024-02-21T09:35:24;4.83;;;2.57;;
705;SDS011;21234;48.690;9.016;2024-02-21T09:37:52;5.57;;;2.40;;
705;SDS011;21234;48.690;9.016;2024-02-21T09:40:19;3.20;;;1.87;;
705;SDS011;21234;48.690;9.016;2024-02-21T09:42:47;3.83;;;2.37;;
705;SDS011;21234;48.690;9.016;2024-02-21T09:45:15;6.20;;;2.80;;
705;SDS011;21234;48.690;9.016;2024-02-21T09:47:50;5.97;;;2.30;;
705;SDS011;21234;48.690;9.016;2024-02-21T09:50:24;7.10;;;2.43;;
705;SDS011;21234;48.690;9.016;2024-02-21T09:52:53;2.63;;;2.00;;
705;SDS011;21234;48.690;9.016;2024-02-21T09:55:21;2.70;;;1.90;;
705;SDS011;21234;48.690;9.016;2024-02-21T09:57:50;6.47;;;1.97;;
705;SDS011;21234;48.690;9.016;2024-02-21T10:00:18;3.13;;;2.20;;
705;SDS011;21234;48.690;9.016;2024-02-21T10:02:46;2.97;;;1.60;;
705;SDS011;21234;48.690;9.016;2024-02-21T10:05:14;2.30;;;1.60;;
705;SDS011;21234;48.690;9.016;2024-02-21T10:07:42;3.53;;;1.77;;
705;SDS011;21234;48.690;9.016;2024-02-21T10:10:09;6.17;;;2.03;;
705;SDS011;21234;48.690;9.016;2024-02-21T10:12:37;4.27;;;1.80;;
705;SDS011;21234;48.690;9.016;2024-02-21T10:15:19;3.30;;;1.93;;
705;SDS011;21234;48.690;9.016;2024-02-21T10:17:46;4.40;;;2.30;;
705;SDS011;21234;48.690;9.016;2024-02-21T10:20:13;4.87;;;1.87;;
705;SDS011;21234;48.690;9.016;2024-02-21T10:22:42;6.37;;;1.93;;
705;SDS011;21234;48.690;9.016;2024-02-21T10:25:09;10.30;;;2.67;;
705;SDS011;21234;48.690;9.016;2024-02-21T10:27:37;6.33;;;2.60;;
705;SDS011;21234;48.690;9.016;2024-02-21T10:30:04;4.03;;;1.83;;
705;SDS011;21234;48.690;9.016;2024-02-21T10:32:32;3.30;;;1.90;;
705;SDS011;21234;48.690;9.016;2024-02-21T10:35:01;2.37;;;1.67;;
705;SDS011;21234;48.690;9.016;2024-02-21T10:37:30;4.07;;;1.53;;
705;SDS011;21234;48.690;9.016;2024-02-21T10:39:58;5.13;;;1.63;;
705;SDS011;21234;48.690;9.016;2024-02-21T10:42:26;3.53;;;1.63;;
705;SDS011;21234;48.690;9.016;2024-02-21T10:44:59;3.23;;;2.10;;
705;SDS011;21234;48.690;9.016;2024-02-21T10:47:29;5.63;;;1.93;;
705;SDS011;21234;48.690;9.016;2024-02-21T10:50:02;3.67;;;1.80;;
705;SDS011;21234;48.690;9.016;2024-02-21T10:52:31;4.87;;;1.70;;
705;SDS011;21234;48.690;9.016;2024-02-21T10:55:09;3.87;;;2.20;;
705;SDS011;21234;48.690;9.016;2024-02-21T10:57:39;2.70;;;2.10;;
705;SDS011;21234;48.690;9.016;2024-02-21T11:00:07;1.90;;;1.30;;
705;SDS011;21234;48.690;9.016;2024-02-21T11:02:37;4.70;;;1.53;;
705;SDS011;21234;48.690;9.016;2024-02-21T11:05:07;3.53;;;2.03;;
705;SDS011;21234;48.690;9.016;2024-02-21T11:07:35;1.80;;;1.20;;
705;SDS011;21234;48.690;9.016;2024-02-21T11:10:03;2.03;;;1.70;;
705;SDS011;21234;48.690;9.016;2024-02-21T11:12:34;3.93;;;1.40;;
705;SDS011;21234;48.690;9.016;2024-02-21T11:15:04;1.90;;;1.23;;
705;SDS011;21234;48.690;9.016;2024-02-21T11:17:31;2.30;;;1.23;;
705;SDS011;21234;48.690;9.016;2024-02-21T11:19:58;3.80;;;1.20;;
705;SDS011;21234;48.690;9.016;2024-02-21T11:22:26;6.43;;;1.40;;
705;SDS011;21234;48.690;9.016;2024-02-21T11:25:05;2.63;;;0.87;;
705;SDS011;21234;48.690;9.016;2024-02-21T11:27:35;4.40;;;1.43;;
705;SDS011;21234;48.690;9.016;2024-02-21T11:30:03;4.67;;;1.83;;
705;SDS011;21234;48.690;9.016;2024-02-21T11:32:31;2.00;;;1.20;;
705;SDS011;21234;48.690;9.016;2024-02-21T11:34:58;3.27;;;1.80;;
705;SDS011;21234;48.690;9.016;2024-02-21T11:37:27;3.40;;;1.70;;
705;SDS011;21234;48.690;9.016;2024-02-21T11:39:53;1.90;;;1.10;;
705;SDS011;21234;48.690;9.016;2024-02-21T11:42:20;4.27;;;1.20;;
705;SDS011;21234;48.690;9.016;2024-02-21T11:44:49;4.57;;;1.80;;
705;SDS011;21234;48.690;9.016;2024-02-21T11:47:15;3.43;;;1.07;;
705;SDS011;21234;48.690;9.016;2024-02-21T11:49:43;3.30;;;1.70;;
705;SDS011;21234;48.690;9.016;2024-02-21T11:52:11;3.53;;;1.63;;
705;SDS011;21234;48.690;9.016;2024-02-21T11:54:40;2.80;;;1.30;;
705;SDS011;21234;48.690;9.016;2024-02-21T11:57:07;3.77;;;1.37;;
705;SDS011;21234;48.690;9.016;2024-02-21T11:59:34;4.17;;;1.80;;
705;SDS011;21234;48.690;9.016;2024-02-21T12:02:02;3.00;;;1.43;;
705;SDS011;21234;48.690;9.016;2024-02-21T12:04:29;3.30;;;1.70;;
705;SDS011;21234;48.690;9.016;2024-02-21T12:06:57;2.00;;;1.47;;
705;SDS011;21234;48.690;9.016;2024-02-21T12:09:24;5.00;;;1.53;;
705;SDS011;21234;48.690;9.016;2024-02-21T12:11:57;2.00;;;0.90;;
705;SDS011;21234;48.690;9.016;2024-02-21T12:14:25;2.43;;;0.60;;
705;SDS011;21234;48.690;9.016;2024-02-21T12:16:52;1.37;;;0.80;;
705;SDS011;21234;48.690;9.016;2024-02-21T12:19:20;3.23;;;1.60;;
705;SDS011;21234;48.690;9.016;2024-02-21T12:21:47;5.03;;;1.23;;
705;SDS011;21234;48.690;9.016;2024-02-21T12:24:15;1.37;;;1.00;;
705;SDS011;21234;48.690;9.016;2024-02-21T12:26:45;1.00;;;0.90;;
705;SDS011;21234;48.690;9.016;2024-02-21T12:29:12;1.37;;;1.20;;
705;SDS011;21234;48.690;9.016;2024-02-21T12:31:38;4.10;;;0.97;;
705;SDS011;21234;48.690;9.016;2024-02-21T12:34:06;2.80;;;1.40;;
705;SDS011;21234;48.690;9.016;2024-02-21T12:36:36;1.13;;;0.90;;
705;SDS011;21234;48.690;9.016;2024-02-21T12:39:07;2.07;;;1.20;;
705;SDS011;21234;48.690;9.016;2024-02-21T12:41:34;3.10;;;1.30;;
705;SDS011;21234;48.690;9.016;2024-02-21T12:44:03;2.30;;;1.00;;
705;SDS011;21234;48.690;9.016;2024-02-21T12:46:32;3.27;;;0.97;;
705;SDS011;21234;48.690;9.016;2024-02-21T12:48:58;3.50;;;1.40;;
705;SDS011;21234;48.690;9.016;2024-02-21T12:51:25;0.83;;;0.57;;
705;SDS011;21234;48.690;9.016;2024-02-21T12:53:53;2.57;;;0.70;;
705;SDS011;21234;48.690;9.016;2024-02-21T12:56:20;1.90;;;0.80;;
705;SDS011;21234;48.690;9.016;2024-02-21T12:58:47;2.23;;;0.90;;
705;SDS011;21234;48.690;9.016;2024-02-21T13:01:13;2.07;;;0.90;;
705;SDS011;21234;48.690;9.016;2024-02-21T13:03:40;2.50;;;0.90;;
705;SDS011;21234;48.690;9.016;2024-02-21T13:06:07;3.30;;;0.90;;
705;SDS011;21234;48.690;9.016;2024-02-21T13:08:35;2.50;;;1.20;;
705;SDS011;21234;48.690;9.016;2024-02-21T13:11:04;1.87;;;0.93;;
705;SDS011;21234;48.690;9.016;2024-02-21T13:13:31;2.87;;;1.40;;
705;SDS011;21234;48.690;9.016;2024-02-21T13:15:58;2.43;;;1.37;;
705;SDS011;21234;48.690;9.016;2024-02-21T13:18:24;2.73;;;1.60;;
705;SDS011;21234;48.690;9.016;2024-02-21T13:20:51;2.17;;;1.77;;
705;SDS011;21234;48.690;9.016;2024-02-21T13:23:18;2.17;;;1.73;;
705;SDS011;21234;48.690;9.016;2024-02-21T13:25:46;2.13;;;1.20;;
705;SDS011;21234;48.690;9.016;2024-02-21T13:28:14;2.30;;;1.63;;
705;SDS011;21234;48.690;9.016;2024-02-21T13:30:41;2.93;;;1.40;;
705;SDS011;21234;48.690;9.016;2024-02-21T13:33:08;1.73;;;1.00;;
705;SDS011;21234;48.690;9.016;2024-02-21T13:35:35;3.07;;;2.00;;
705;SDS011;21234;48.690;9.016;2024-02-21T13:38:02;1.80;;;0.93;;
705;SDS011;21234;48.690;9.016;2024-02-21T13:40:29;3.20;;;1.40;;
705;SDS011;21234;48.690;9.016;2024-02-21T13:42:56;7.20;;;1.57;;
705;SDS011;21234;48.690;9.016;2024-02-21T13:45:24;1.23;;;0.77;;
705;SDS011;21234;48.690;9.016;2024-02-21T13:47:51;3.17;;;0.70;;
705;SDS011;21234;48.690;9.016;2024-02-21T13:50:18;0.83;;;0.60;;
705;SDS011;21234;48.690;9.016;2024-02-21T13:52:46;2.97;;;1.60;;
705;SDS011;21234;48.690;9.016;2024-02-21T13:55:13;1.40;;;0.70;;
705;SDS011;21234;48.690;9.016;2024-02-21T13:57:39;2.83;;;0.70;;
705;SDS011;21234;48.690;9.016;2024-02-21T14:00:07;2.00;;;0.50;;
705;SDS011;21234;48.690;9.016;2024-02-21T14:02:37;1.07;;;0.90;;
705;SDS011;21234;48.690;9.016;2024-02-21T14:05:04;2.13;;;0.90;;
705;SDS011;21234;48.690;9.016;2024-02-21T14:07:31;1.43;;;0.90;;
705;SDS011;21234;48.690;9.016;2024-02-21T14:09:59;3.63;;;1.03;;
705;SDS011;21234;48.690;9.016;2024-02-21T14:12:26;1.87;;;1.03;;
705;SDS011;21234;48.690;9.016;2024-02-21T14:14:52;1.23;;;0.80;;
705;SDS011;21234;48.690;9.016;2024-02-21T14:17:20;2.40;;;0.80;;
705;SDS011;21234;48.690;9.016;2024-02-21T14:19:48;3.17;;;1.23;;
705;SDS011;21234;48.690;9.016;2024-02-21T14:22:14;0.70;;;0.70;;
705;SDS011;21234;48.690;9.016;2024-02-21T14:24:41;2.90;;;1.00;;
705;SDS011;21234;48.690;9.016;2024-02-21T14:27:08;8.50;;;1.33;;
705;SDS011;21234;48.690;9.016;2024-02-21T14:29:35;1.53;;;0.87;;
705;SDS011;21234;48.690;9.016;2024-02-21T14:32:03;1.90;;;0.60;;
705;SDS011;21234;48.690;9.016;2024-02-21T14:34:31;4.97;;;1.07;;
705;SDS011;21234;48.690;9.016;2024-02-21T14:36:59;1.60;;;0.77;;
705;SDS011;21234;48.690;9.016;2024-02-21T14:39:25;0.80;;;0.80;;
705;SDS011;21234;48.690;9.016;2024-02-21T14:41:53;2.40;;;1.20;;
705;SDS011;21234;48.690;9.016;2024-02-21T14:44:20;2.17;;;1.23;;
705;SDS011;21234;48.690;9.016;2024-02-21T14:46:46;1.33;;;1.03;;
705;SDS011;21234;48.690;9.016;2024-02-21T14:49:13;1.20;;;1.10;;
705;SDS011;21234;48.690;9.016;2024-02-21T14:51:40;1.37;;;1.10;;
705;SDS011;21234;48.690;9.016;2024-02-21T14:54:08;1.00;;;0.80;;
705;SDS011;21234;48.690;9.016;2024-02-21T14:56:34;2.00;;;1.13;;
705;SDS011;21234;48.690;9.016;2024-02-21T14:59:01;2.23;;;1.30;;
705;SDS011;21234;48.690;9.016;2024-02-21T15:01:29;3.67;;;1.20;;
705;SDS011;21234;48.690;9.016;2024-02-21T15:03:57;3.00;;;0.90;;
705;SDS011;21234;48.690;9.016;2024-02-21T15:06:23;1.30;;;1.20;;
705;SDS011;21234;48.690;9.016;2024-02-21T15:08:50;2.73;;;1.00;;
705;SDS011;21234;48.690;9.016;2024-02-21T15:11:18;2.37;;;1.20;;
705;SDS011;21234;48.690;9.016;2024-02-21T15:13:47;5.07;;;1.43;;
705;SDS011;21234;48.690;9.016;2024-02-21T15:16:14;2.40;;;1.20;;